Time;durP1;ratioP1;P1;durP2;ratioP2;P2;SDS_P1;SDS_P2;PMS_P1;PMS_P2;Temp;Humidity;BMP_temperature;BMP_pressure;BME280_temperature;BME280_humidity;BME280_pressure;Samples;Min_cycle;Max_cycle;Signal;HPM_P1;HPM_P2
2022/11/09 00:01:30;;;;;;;2.22;2.03;;;15.70;54.90;;;14.52;55.78;100663.97;12166967;19;20774;-89
2022/11/09 00:05:32;;;;;;;1.92;1.77;;;15.70;54.90;;;14.79;55.99;100713.69;12162972;19;20101;-89
2022/11/09 00:09:34;;;;;;;2.08;1.70;;;15.70;55.00;;;14.69;55.95;100691.66;12163719;19;20015;-89
2022/11/09 00:13:41;;;;;;;5.00;3.15;;;15.60;55.00;;;14.55;55.82;100677.72;12164323;19;20109;-88
2022/11/09 00:17:43;;;;;;;2.63;2.17;;;15.70;55.00;;;14.65;55.90;100695.47;12161121;19;20018;-89
2022/11/09 00:21:45;;;;;;;4.85;3.00;;;15.70;55.00;;;14.70;55.92;100706.50;12161208;19;20022;-89
2022/11/09 00:25:47;;;;;;;7.28;2.55;;;15.80;55.10;;;14.62;55.99;100690.44;12158445;19;20133;-88
2022/11/09 00:29:48;;;;;;;5.25;3.88;;;15.60;54.90;;;14.64;55.85;100696.44;12157582;19;20031;-88
2022/11/09 00:33:55;;;;;;;4.15;2.60;;;15.60;55.00;;;14.67;56.12;100714.63;12158697;19;20395;-88
2022/11/09 00:37:57;;;;;;;2.95;2.15;;;15.60;55.00;;;14.68;55.83;100711.03;12156289;19;20060;-90
2022/11/09 00:41:59;;;;;;;3.55;1.70;;;15.60;54.90;;;14.69;56.01;100712.69;12158231;19;20042;-89
2022/11/09 00:46:04;;;;;;;2.78;1.90;;;15.60;55.10;;;14.59;55.97;100702.84;12153632;19;20040;-89
2022/11/09 00:50:07;;;;;;;2.13;1.67;;;15.60;55.00;;;14.72;55.96;100720.38;12142901;19;20295;-90
2022/11/09 00:54:08;;;;;;;1.80;1.45;;;15.40;54.80;;;14.67;55.89;100709.34;12154299;19;20010;-89
2022/11/09 00:58:10;;;;;;;2.50;1.60;;;15.60;55.00;;;14.63;55.88;100702.63;12156501;19;20022;-89
2022/11/09 01:02:12;;;;;;;1.55;1.45;;;15.50;54.90;;;14.21;55.84;100636.47;12158480;19;20019;-89
2022/11/09 01:06:23;;;;;;;3.45;1.50;;;15.80;55.10;;;14.68;56.00;100714.47;12157653;19;20082;-89
2022/11/09 01:10:25;;;;;;;1.25;1.23;;;15.60;55.00;;;14.46;55.91;100675.75;12156021;19;20738;-89
2022/11/09 01:14:28;;;;;;;1.20;1.10;;;15.80;55.10;;;14.20;56.08;100627.72;12158218;19;20039;-89
2022/11/09 01:18:30;;;;;;;1.40;1.30;;;15.70;55.00;;;14.67;55.89;100709.34;12157861;19;20510;-89
2022/11/09 01:22:32;;;;;;;1.85;1.67;;;15.60;55.40;;;14.57;55.84;100694.25;12158214;19;20594;-89
2022/11/09 01:26:34;;;;;;;1.52;1.35;;;15.60;55.00;;;14.52;56.00;100677.97;12154285;19;20050;-90
2022/11/09 01:30:41;;;;;;;1.85;1.50;;;15.50;54.90;;;14.53;55.95;100684.09;12155106;19;20035;-89
2022/11/09 01:34:43;;;;;;;3.15;1.08;;;15.50;54.90;;;14.55;55.95;100684.78;12152578;19;20770;-89
2022/11/09 01:38:46;;;;;;;2.08;1.60;;;15.50;54.90;;;14.58;56.05;100695.94;12153303;19;20890;-90
2022/11/09 01:42:48;;;;;;;2.10;1.45;;;15.50;54.90;;;14.50;56.04;100668.47;12151172;19;20546;-89
2022/11/09 01:46:56;;;;;;;1.95;1.33;;;15.60;54.90;;;14.55;55.83;100680.38;12155967;19;20975;-90
2022/11/09 01:51:05;;;;;;;2.55;1.50;;;15.40;54.70;;;14.47;55.90;100677.41;12155224;19;20309;-88
2022/11/09 01:55:15;;;;;;;1.60;1.45;;;15.40;54.70;;;14.36;55.92;100661.59;12156883;19;20085;-89
2022/11/09 01:59:26;;;;;;;1.40;1.30;;;15.40;54.70;;;14.46;55.81;100672.28;12153609;19;20050;-90
2022/11/09 02:03:36;;;;;;;1.20;1.10;;;15.40;54.70;;;14.37;55.68;100665.91;12156556;19;20035;-90
2022/11/09 02:07:39;;;;;;;1.42;1.33;;;15.50;54.70;;;14.43;55.91;100670.72;12161183;19;20766;-90
2022/11/09 02:11:41;;;;;;;1.35;1.25;;;15.60;54.80;;;13.95;55.81;100591.88;12166623;19;20018;-89
2022/11/09 02:15:42;;;;;;;1.33;1.23;;;15.30;54.80;;;14.38;55.90;100668.41;12167920;19;20397;-89
2022/11/09 02:19:45;;;;;;;2.10;1.30;;;15.30;54.70;;;14.27;55.90;100654.38;12159783;19;21126;-90
2022/11/09 02:23:47;;;;;;;1.80;1.60;;;15.40;54.80;;;14.26;55.76;100648.31;12163807;19;20086;-88
2022/11/09 02:27:49;;;;;;;1.60;1.50;;;15.30;54.80;;;14.23;56.05;100645.03;12161443;19;20339;-89
2022/11/09 02:31:57;;;;;;;1.73;1.63;;;15.20;54.70;;;14.19;55.89;100648.84;12164480;19;20014;-90
2022/11/09 02:35:59;;;;;;;1.70;1.17;;;15.40;54.90;;;14.17;56.00;100639.28;12166545;19;20039;-90
2022/11/09 02:40:08;;;;;;;1.40;1.30;;;15.10;54.80;;;14.14;55.94;100649.16;12149321;19;20485;-90
2022/11/09 02:44:11;;;;;;;1.52;1.30;;;15.00;54.90;;;14.00;55.85;100623.91;12152367;19;20018;-89
2022/11/09 02:48:12;;;;;;;1.30;1.23;;;15.00;54.80;;;14.02;56.06;100645.66;12141860;19;20018;-89
2022/11/09 02:52:15;;;;;;;2.03;1.45;;;15.10;55.00;;;13.80;55.98;100608.72;12144101;19;20022;-89
2022/11/09 02:56:19;;;;;;;1.30;1.20;;;14.90;54.90;;;13.93;55.92;100646.28;12144480;19;20732;-90
2022/11/09 03:00:21;;;;;;;1.40;1.30;;;14.90;54.90;;;13.91;55.99;100637.69;12127693;19;20476;-90
2022/11/09 03:04:23;;;;;;;1.70;1.40;;;14.80;54.90;;;13.95;55.91;100645.22;12135288;19;20277;-89
2022/11/09 03:08:27;;;;;;;1.70;1.40;;;14.80;54.90;;;13.84;55.89;100637.25;12132735;19;20034;-89
2022/11/09 03:12:29;;;;;;;1.27;1.17;;;14.80;54.80;;;13.86;55.87;100645.03;12128674;19;20010;-90
2022/11/09 03:16:37;;;;;;;2.78;1.52;;;14.90;54.90;;;13.50;55.81;100591.53;12135336;19;20018;-89
2022/11/09 03:20:40;;;;;;;1.58;1.48;;;14.70;54.90;;;13.71;55.89;100639.91;12131864;19;20027;-91
2022/11/09 03:24:42;;;;;;;1.52;1.42;;;14.70;54.90;;;13.35;55.88;100582.13;12135335;19;20011;-90
2022/11/09 03:28:44;;;;;;;1.75;1.30;;;14.60;55.00;;;13.65;56.16;100629.84;12130816;19;20018;-90
2022/11/09 03:32:47;;;;;;;1.40;1.30;;;14.60;55.00;;;13.33;56.16;100591.88;12144226;19;20493;-90
2022/11/09 03:36:49;;;;;;;1.17;1.10;;;14.60;55.10;;;13.61;56.03;100619.66;12147954;19;20114;-90
2022/11/09 03:40:52;;;;;;;1.45;1.35;;;14.60;55.10;;;13.57;56.10;100631.31;12148432;19;20029;-90
2022/11/09 03:44:54;;;;;;;1.55;1.45;;;14.60;55.20;;;13.69;56.12;100652.31;12139967;19;20383;-89
2022/11/09 03:48:56;;;;;;;1.42;1.33;;;14.50;55.20;;;13.41;56.16;100618.44;12149240;19;20359;-90
2022/11/09 03:52:59;;;;;;;3.03;1.52;;;14.60;55.30;;;13.62;56.14;100648.44;12167979;19;20616;-90
2022/11/09 03:57:00;;;;;;;1.25;1.17;;;14.50;55.30;;;13.59;56.19;100638.16;12165377;19;20010;-89
2022/11/09 04:01:02;;;;;;;1.80;1.42;;;14.80;55.40;;;13.69;56.19;100646.19;12166561;19;20018;-89
2022/11/09 04:05:05;;;;;;;1.70;1.20;;;14.60;55.40;;;13.70;56.10;100653.16;12164536;19;20018;-88
2022/11/09 04:09:09;;;;;;;1.33;1.20;;;14.60;55.40;;;13.64;56.26;100649.16;12160364;19;20329;-88
2022/11/09 04:13:10;;;;;;;1.08;0.98;;;14.60;55.50;;;13.70;56.26;100656.59;12148187;19;20003;-89
2022/11/09 04:17:12;;;;;;;1.45;1.30;;;14.60;55.50;;;13.68;56.27;100647.16;12146591;19;20129;-88
2022/11/09 04:21:14;;;;;;;1.30;1.15;;;14.60;55.50;;;13.69;56.30;100633.94;12145684;19;20018;-86
2022/11/09 04:25:15;;;;;;;1.20;1.10;;;14.60;55.50;;;13.76;56.25;100644.00;12141256;19;20026;-87
2022/11/09 04:29:17;;;;;;;1.40;1.30;;;14.70;55.50;;;13.81;56.22;100636.66;12131136;19;20019;-87
2022/11/09 04:33:19;;;;;;;1.38;1.27;;;14.70;55.50;;;13.53;56.38;100593.97;12131120;19;20395;-87
2022/11/09 04:37:21;;;;;;;1.02;0.93;;;14.70;55.60;;;13.74;56.39;100623.09;12140828;19;20379;-86
2022/11/09 04:41:22;;;;;;;1.38;1.27;;;14.70;55.70;;;13.83;56.30;100632.97;12137681;19;20472;-86
2022/11/09 04:45:24;;;;;;;2.92;1.45;;;14.80;55.80;;;13.85;56.28;100653.84;12135329;19;20022;-87
2022/11/09 04:49:26;;;;;;;1.48;1.00;;;14.80;55.80;;;13.84;56.42;100642.53;12139729;19;20887;-87
2022/11/09 04:53:28;;;;;;;1.30;1.20;;;14.80;55.80;;;13.71;56.42;100626.78;12141186;19;20577;-88
2022/11/09 04:57:30;;;;;;;1.65;1.10;;;15.00;56.00;;;13.86;56.45;100642.41;12141847;19;20022;-88
2022/11/09 05:01:31;;;;;;;1.90;1.33;;;15.10;56.40;;;13.82;56.49;100640.94;12140112;19;20047;-87
2022/11/09 05:05:35;;;;;;;1.30;1.00;;;15.10;56.50;;;13.80;56.57;100654.19;12140288;19;20020;-88
2022/11/09 05:09:37;;;;;;;1.08;1.08;;;14.90;56.60;;;13.80;56.62;100661.19;12137878;19;20375;-87
2022/11/09 05:13:39;;;;;;;1.55;1.20;;;14.90;56.60;;;13.84;56.65;100671.38;12141004;19;20039;-88
2022/11/09 05:17:41;;;;;;;1.50;1.40;;;15.00;56.90;;;13.79;56.72;100665.63;12134859;19;20315;-87
2022/11/09 05:21:42;;;;;;;1.50;1.40;;;14.90;56.90;;;13.91;56.77;100687.56;12139627;19;20388;-87
2022/11/09 05:25:45;;;;;;;1.60;1.15;;;14.90;57.00;;;13.80;56.73;100661.19;12140892;19;20485;-87
2022/11/09 05:29:47;;;;;;;1.25;1.05;;;14.80;57.10;;;13.81;56.86;100666.34;12142365;19;20018;-87
2022/11/09 05:33:50;;;;;;;2.40;1.70;;;15.00;57.10;;;13.84;56.88;100670.56;12145507;19;20022;-87
2022/11/09 05:37:52;;;;;;;1.35;1.25;;;14.80;57.10;;;13.88;56.89;100669.38;12148302;19;20755;-87
2022/11/09 05:41:54;;;;;;;1.10;0.90;;;14.80;57.20;;;13.68;56.99;100649.78;12154142;19;20034;-87
2022/11/09 05:45:56;;;;;;;1.48;1.38;;;15.00;57.20;;;13.82;57.00;100675.06;12152186;19;20030;-87
2022/11/09 05:49:58;;;;;;;4.50;3.30;;;14.90;57.30;;;13.86;56.96;100687.03;12147720;19;20015;-87
2022/11/09 05:53:59;;;;;;;4.60;3.90;;;14.80;57.30;;;13.85;57.00;100687.97;12152560;19;20427;-88
2022/11/09 05:58:01;;;;;;;5.00;3.80;;;14.80;57.40;;;13.62;57.11;100653.69;12145071;19;20053;-87
2022/11/09 06:02:02;;;;;;;2.47;2.20;;;15.00;57.50;;;13.77;57.17;100662.28;12146033;19;20375;-88
2022/11/09 06:06:06;;;;;;;3.25;1.80;;;14.80;57.60;;;13.86;57.08;100671.28;12146220;19;20036;-88
2022/11/09 06:10:09;;;;;;;3.28;1.45;;;14.80;58.00;;;13.86;57.30;100681.78;12141967;19;20770;-88
2022/11/09 06:14:10;;;;;;;1.00;1.00;;;14.80;57.60;;;13.84;57.16;100681.06;12150839;19;20014;-88
2022/11/09 06:18:12;;;;;;;1.70;1.60;;;14.80;57.60;;;13.70;57.29;100674.97;12152197;19;20029;-88
2022/11/09 06:22:14;;;;;;;1.35;1.25;;;14.80;57.70;;;13.87;57.34;100707.09;12162691;19;20374;-88
2022/11/09 06:26:15;;;;;;;1.10;1.00;;;14.80;57.70;;;13.73;57.43;100680.00;12160542;19;20209;-88
2022/11/09 06:30:17;;;;;;;1.77;1.30;;;15.00;57.90;;;13.78;57.36;100679.69;12146849;19;20047;-88
2022/11/09 06:34:19;;;;;;;1.60;1.50;;;14.80;57.70;;;13.79;57.49;100681.38;12155120;19;20034;-88
2022/11/09 06:38:21;;;;;;;1.83;1.48;;;15.00;58.00;;;13.88;57.50;100707.00;12152020;19;20023;-88
2022/11/09 06:42:23;;;;;;;1.60;1.20;;;14.80;57.80;;;13.79;57.50;100673.50;12165738;19;20111;-87
2022/11/09 06:46:25;;;;;;;1.80;1.70;;;14.90;57.80;;;13.94;57.50;100697.84;12155107;19;20046;-88
2022/11/09 06:50:31;;;;;;;1.45;1.23;;;14.80;57.80;;;13.62;57.56;100658.91;12140471;19;20022;-88
2022/11/09 06:54:33;;;;;;;2.35;1.60;;;14.90;57.90;;;13.83;57.56;100701.22;12147487;19;20094;-88
2022/11/09 06:58:35;;;;;;;1.77;1.40;;;14.90;57.90;;;13.87;57.61;100710.53;12152208;19;20427;-88
2022/11/09 07:02:37;;;;;;;2.22;1.67;;;14.90;57.90;;;13.99;57.56;100735.13;12155907;19;20022;-87
2022/11/09 07:06:42;;;;;;;1.60;1.50;;;14.90;58.00;;;13.75;57.69;100700.09;12153474;19;20025;-87
2022/11/09 07:10:44;;;;;;;2.38;1.77;;;15.20;58.10;;;13.98;57.74;100733.44;12153560;19;20442;-88
2022/11/09 07:14:46;;;;;;;5.53;1.77;;;14.90;58.00;;;13.88;57.77;100722.75;12164336;19;20017;-88
2022/11/09 07:18:48;;;;;;;2.17;1.90;;;15.20;58.10;;;14.02;57.65;100736.72;12168787;19;20979;-88
2022/11/09 07:22:50;;;;;;;2.80;1.80;;;15.00;58.20;;;14.05;57.78;100733.88;12177235;19;20018;-88
2022/11/09 07:26:52;;;;;;;2.15;1.83;;;15.00;58.20;;;14.08;57.77;100723.13;12171033;19;20021;-88
2022/11/09 07:30:55;;;;;;;3.30;2.00;;;15.00;58.30;;;13.92;57.78;100697.13;12171298;19;20030;-89
2022/11/09 07:34:57;;;;;;;3.25;1.95;;;15.00;58.20;;;14.02;57.82;100698.16;12170572;19;20034;-86
2022/11/09 07:38:58;;;;;;;2.65;2.15;;;15.00;58.40;;;14.03;57.83;100705.06;12166968;19;20094;-88
2022/11/09 07:43:02;;;;;;;3.08;1.92;;;15.00;58.40;;;13.83;57.79;100671.50;12146369;19;20029;-88
2022/11/09 07:47:05;;;;;;;2.40;2.20;;;15.00;58.50;;;14.07;57.96;100717.06;12127041;19;20471;-88
2022/11/09 07:51:07;;;;;;;3.03;1.80;;;15.00;58.40;;;14.08;58.03;100710.84;12132526;19;20014;-88
2022/11/09 07:55:08;;;;;;;1.92;1.75;;;15.00;58.60;;;13.98;58.04;100688.78;12159752;19;20026;-87
2022/11/09 07:59:10;;;;;;;2.22;1.95;;;15.00;58.70;;;13.77;58.09;100650.91;12157740;19;20146;-88
2022/11/09 08:03:12;;;;;;;2.42;2.22;;;15.30;58.80;;;14.10;58.11;100706.34;12156427;19;20308;-88
2022/11/09 08:07:14;;;;;;;2.72;2.15;;;15.00;58.80;;;13.83;58.19;100676.75;12159810;19;20014;-88
2022/11/09 08:11:16;;;;;;;2.25;2.03;;;15.00;58.90;;;14.04;58.05;100722.53;12153883;19;20028;-87
2022/11/09 08:15:17;;;;;;;4.25;2.88;;;15.10;58.90;;;14.09;58.21;100751.06;12154613;19;20018;-88
2022/11/09 08:19:19;;;;;;;3.20;2.03;;;15.10;59.00;;;13.97;58.34;100738.81;12157987;19;20766;-85
2022/11/09 08:23:21;;;;;;;2.28;2.00;;;15.00;59.00;;;14.11;58.33;100768.41;12160968;19;20016;-86
2022/11/09 08:27:23;;;;;;;2.60;1.85;;;15.00;59.10;;;14.15;58.43;100776.94;12155427;19;20795;-88
2022/11/09 08:31:25;;;;;;;2.60;1.65;;;15.30;59.30;;;14.12;58.43;100771.84;12155589;19;20057;-88
2022/11/09 08:35:28;;;;;;;2.45;2.25;;;15.00;59.20;;;14.21;58.48;100773.03;12148530;19;20018;-87
2022/11/09 08:39:29;;;;;;;2.83;2.20;;;15.40;59.30;;;14.18;58.45;100755.69;12151859;19;20043;-87
2022/11/09 08:43:31;;;;;;;3.20;2.47;;;15.10;59.20;;;14.11;58.44;100742.13;12152500;19;20891;-88
2022/11/09 08:47:33;;;;;;;3.70;2.33;;;15.10;59.40;;;14.14;58.47;100738.47;12157399;19;20018;-88
2022/11/09 08:51:35;;;;;;;2.88;2.58;;;15.40;59.30;;;14.23;58.59;100763.22;12155862;19;20014;-87
2022/11/09 08:55:36;;;;;;;3.17;2.65;;;15.20;59.50;;;14.11;58.46;100725.53;12161537;19;20015;-88
2022/11/09 08:59:38;;;;;;;4.80;2.30;;;15.20;59.40;;;14.21;58.60;100759.91;12155427;19;20035;-88
2022/11/09 09:03:40;;;;;;;3.10;2.60;;;15.10;59.50;;;14.16;58.58;100758.41;12156369;19;20026;-88
2022/11/09 09:07:42;;;;;;;2.90;2.65;;;15.20;59.60;;;14.18;58.69;100760.94;12158248;19;20894;-88
2022/11/09 09:11:43;;;;;;;2.83;2.60;;;15.30;59.70;;;14.14;58.65;100754.22;12152456;19;20371;-88
2022/11/09 09:15:45;;;;;;;2.90;2.55;;;15.20;59.60;;;14.00;58.77;100723.66;12153462;19;20382;-87
2022/11/09 09:19:49;;;;;;;3.58;3.08;;;15.20;59.70;;;14.24;58.96;100788.56;12162387;19;20804;-88
2022/11/09 09:23:51;;;;;;;4.32;3.03;;;15.20;59.90;;;14.23;58.92;100779.00;12168906;19;20851;-88
2022/11/09 09:27:53;;;;;;;3.60;3.03;;;15.20;59.90;;;14.01;58.96;100738.47;12166264;19;20055;-88
2022/11/09 09:31:54;;;;;;;3.53;3.03;;;15.30;59.90;;;14.21;58.95;100773.88;12167969;19;20467;-88
2022/11/09 09:35:57;;;;;;;3.20;2.60;;;15.30;60.10;;;14.35;59.01;100786.03;12172367;19;20491;-88
2022/11/09 09:39:58;;;;;;;6.80;3.58;;;15.30;60.00;;;14.36;59.08;100792.94;12166683;19;20064;-88
2022/11/09 09:44:17;;;;;;;2.55;2.35;;;15.60;61.80;;;14.26;58.89;100771.75;12171433;19;20022;-85
2022/11/09 09:48:49;;;;;;;3.63;2.85;;;15.50;60.00;;;14.31;59.19;100782.78;12170326;19;20497;-87
2022/11/09 09:53:10;;;;;;;3.90;3.45;;;15.40;59.90;;;14.31;59.05;100768.78;12170298;19;20023;-90
2022/11/09 09:57:21;;;;;;;4.05;2.88;;;15.40;60.20;;;14.45;59.25;100797.59;12166858;19;20014;-90
2022/11/09 10:01:34;;;;;;;3.75;2.53;;;15.40;59.90;;;14.45;59.25;100802.00;12172874;19;20051;-90
2022/11/09 10:05:55;;;;;;;3.30;2.65;;;15.40;59.90;;;14.26;59.07;100769.13;12169721;19;20025;-87
2022/11/09 10:10:11;;;;;;;3.67;2.78;;;15.60;60.20;;;14.55;59.24;100809.13;12166354;19;20018;-87
2022/11/09 10:14:42;;;;;;;3.72;2.53;;;15.50;60.00;;;14.53;59.27;100792.66;12175787;19;20014;-86
2022/11/09 10:19:22;;;;;;;5.07;3.03;;;15.50;60.00;;;14.63;59.33;100826.16;12172105;19;20046;-86
2022/11/09 10:23:51;;;;;;;4.07;2.85;;;15.60;60.10;;;14.70;59.25;100819.53;12173603;19;20022;-86
2022/11/09 10:27:57;;;;;;;2.90;2.45;;;15.80;60.40;;;14.63;59.26;100799.88;12169479;19;20022;-86
2022/11/09 10:32:19;;;;;;;4.25;2.88;;;15.70;59.90;;;14.66;59.41;100804.91;12177186;19;20018;-86
2022/11/09 10:36:46;;;;;;;3.40;2.72;;;15.70;59.90;;;14.78;59.30;100823.28;12171147;19;20033;-87
2022/11/09 10:40:57;;;;;;;2.72;2.45;;;15.80;59.90;;;14.85;59.47;100810.53;12169099;19;20014;-86
2022/11/09 10:45:32;;;;;;;2.83;2.42;;;15.80;60.00;;;14.65;59.49;100769.91;12173413;19;20022;-89
2022/11/09 10:50:24;;;;;;;2.92;2.53;;;15.80;59.90;;;14.93;59.54;100800.31;12167430;19;20394;-87
2022/11/09 10:54:44;;;;;;;2.58;2.38;;;15.90;59.90;;;15.00;59.44;100787.56;12169115;19;20058;-85
2022/11/09 10:59:40;;;;;;;3.15;2.83;;;15.90;60.00;;;14.54;59.43;100701.50;12171952;19;20052;-87
2022/11/09 11:04:20;;;;;;;3.58;2.90;;;16.00;60.10;;;15.00;59.46;100756.00;12180099;19;20957;-87
2022/11/09 11:08:45;;;;;;;3.13;2.65;;;16.00;60.00;;;14.83;59.41;100715.19;12178607;19;20463;-86
2022/11/09 11:13:06;;;;;;;3.78;3.28;;;16.10;59.70;;;15.19;59.38;100752.84;12174656;19;20288;-88
2022/11/09 11:17:34;;;;;;;3.53;2.95;;;16.10;59.60;;;15.21;59.29;100750.94;12163906;19;20022;-87
2022/11/09 11:22:11;;;;;;;4.43;3.10;;;16.20;59.70;;;15.23;59.41;100752.53;12180082;19;20018;-87
2022/11/09 11:27:09;;;;;;;5.13;2.92;;;16.20;60.10;;;15.22;59.45;100752.63;12172419;19;20018;-87
2022/11/09 11:31:29;;;;;;;2.65;2.45;;;16.30;59.80;;;15.33;59.54;100757.09;12169442;19;20399;-87
2022/11/09 11:36:22;;;;;;;5.15;2.80;;;16.30;59.70;;;15.38;59.39;100761.06;12176280;19;20015;-87
2022/11/09 11:41:02;;;;;;;4.43;3.30;;;16.40;59.80;;;15.44;59.58;100757.94;12164409;19;20014;-88
2022/11/09 11:45:38;;;;;;;3.33;2.45;;;16.70;59.90;;;15.44;59.31;100751.84;12182757;19;20309;-87
2022/11/09 11:50:07;;;;;;;3.53;2.85;;;16.50;59.70;;;15.56;59.63;100745.69;12170309;19;20023;-87
2022/11/09 11:54:48;;;;;;;4.07;3.33;;;16.50;59.70;;;15.41;59.48;100710.81;12168568;19;20010;-87
2022/11/09 11:59:26;;;;;;;6.32;3.33;;;16.60;59.80;;;15.65;59.56;100731.81;12173808;19;20011;-88
2022/11/09 12:04:28;;;;;;;3.72;3.08;;;16.80;59.70;;;15.73;59.65;100733.88;12173343;19;20885;-87
2022/11/09 12:09:02;;;;;;;10.25;6.22;;;16.70;59.70;;;15.78;59.52;100731.75;12161697;19;20458;-87
2022/11/09 12:13:56;;;;;;;7.68;4.82;;;16.70;59.70;;;15.74;59.53;100695.22;12176980;19;20018;-87
2022/11/09 12:18:45;;;;;;;10.32;6.60;;;16.80;59.60;;;15.67;59.44;100682.50;12177163;19;20857;-87
2022/11/09 12:23:14;;;;;;;7.03;4.55;;;16.90;59.60;;;16.00;59.53;100706.38;12181583;19;20014;-87
2022/11/09 12:28:17;;;;;;;3.35;3.05;;;16.90;59.50;;;15.96;59.34;100702.28;12176201;19;20301;-87
2022/11/09 12:32:53;;;;;;;2.58;2.03;;;17.00;59.60;;;15.98;59.65;100695.94;12182060;19;20047;-88
2022/11/09 12:37:21;;;;;;;2.28;2.08;;;17.10;59.60;;;16.02;59.48;100684.22;12187691;19;21399;-89
2022/11/09 12:41:43;;;;;;;2.20;2.00;;;17.10;59.70;;;16.24;59.53;100703.59;12188820;19;20305;-88
2022/11/09 12:46:05;;;;;;;2.50;2.00;;;17.20;59.70;;;16.31;59.31;100716.19;12184151;19;20066;-86
2022/11/09 12:50:28;;;;;;;2.50;2.30;;;17.30;60.00;;;16.41;59.53;100715.44;12169726;19;20014;-92
2022/11/09 12:54:51;;;;;;;6.47;2.55;;;17.40;59.60;;;16.14;59.40;100679.78;12184587;19;20014;-87
2022/11/09 12:59:25;;;;;;;2.83;2.55;;;17.40;59.70;;;16.53;59.70;100730.28;12182783;19;20014;-90
2022/11/09 13:03:57;;;;;;;2.83;2.00;;;17.50;59.60;;;16.13;59.53;100657.03;12187552;19;20022;-90
2022/11/09 13:08:30;;;;;;;3.58;2.00;;;17.60;59.70;;;16.45;59.58;100693.97;12179375;19;20046;-90
2022/11/09 13:13:22;;;;;;;2.33;1.90;;;17.70;59.50;;;16.34;59.66;100668.50;12178032;19;20026;-90
2022/11/09 13:18:18;;;;;;;3.55;1.50;;;17.70;59.30;;;16.75;59.41;100711.75;12204602;19;20019;-90
2022/11/09 13:22:41;;;;;;;1.80;1.13;;;17.80;59.20;;;16.84;59.62;100718.09;12193744;19;20348;-91
2022/11/09 13:27:03;;;;;;;1.27;1.00;;;17.80;59.10;;;16.51;59.34;100653.94;12191461;19;20022;-92
2022/11/09 13:32:11;;;;;;;2.35;1.30;;;17.90;59.00;;;16.91;59.71;100711.38;12199022;19;20019;-90
2022/11/09 13:36:31;;;;;;;0.93;0.93;;;17.90;58.90;;;16.87;59.54;100707.28;12210657;19;20494;-90
2022/11/09 13:40:55;;;;;;;1.20;1.10;;;18.00;58.80;;;16.90;59.49;100703.56;12246665;19;20332;-90
2022/11/09 13:45:24;;;;;;;1.02;1.02;;;18.00;58.80;;;17.03;59.32;100717.44;12224590;19;20006;-89
2022/11/09 13:49:49;;;;;;;1.02;1.00;;;18.00;58.90;;;16.75;59.38;100672.19;12172834;19;20014;-89
2022/11/09 13:54:34;;;;;;;1.20;1.20;;;18.10;58.70;;;16.97;59.51;100710.84;12169520;19;20446;-89
2022/11/09 13:59:15;;;;;;;1.40;1.30;;;18.00;58.40;;;16.95;59.40;100722.50;12152038;19;20789;-89
2022/11/09 14:03:35;;;;;;;1.05;0.95;;;18.00;58.40;;;17.03;59.07;100730.63;12170065;19;20810;-89
2022/11/09 14:07:57;;;;;;;1.15;1.05;;;18.00;58.30;;;16.77;59.32;100683.50;12176455;19;20018;-88
2022/11/09 14:13:02;;;;;;;1.27;1.17;;;18.00;58.30;;;17.03;59.06;100727.97;12181898;19;20015;-88
2022/11/09 14:17:34;;;;;;;1.38;0.90;;;18.00;58.40;;;17.01;59.13;100729.91;12183015;19;20019;-88
2022/11/09 14:21:54;;;;;;;1.27;1.20;;;18.00;58.40;;;16.35;59.06;100627.16;12192759;19;20006;-88
2022/11/09 14:26:22;;;;;;;1.25;1.13;;;17.90;58.40;;;16.79;59.11;100702.63;12184056;19;20022;-88
2022/11/09 14:30:44;;;;;;;1.13;1.02;;;17.90;58.30;;;16.86;58.87;100718.00;12178340;19;20014;-89
2022/11/09 14:35:26;;;;;;;1.30;1.20;;;17.90;58.30;;;16.97;58.85;100749.59;12186150;19;20018;-89
2022/11/09 14:39:51;;;;;;;1.85;1.67;;;17.90;58.30;;;16.98;59.26;100751.25;12186288;19;20014;-89
2022/11/09 14:44:22;;;;;;;1.20;1.10;;;17.90;58.40;;;16.94;58.97;100760.41;12182244;19;20941;-88
2022/11/09 14:49:00;;;;;;;1.40;1.30;;;17.90;58.30;;;16.83;58.91;100744.63;12175967;19;20460;-89
2022/11/09 14:53:30;;;;;;;1.40;1.30;;;17.90;58.30;;;16.76;59.15;100734.50;12186235;19;20010;-89
2022/11/09 14:57:54;;;;;;;1.40;1.30;;;17.80;58.30;;;16.85;58.88;100750.59;12182855;19;20015;-88
2022/11/09 15:02:18;;;;;;;1.77;1.58;;;17.80;58.30;;;16.71;58.81;100720.03;12185906;19;20015;-88
2022/11/09 15:06:56;;;;;;;1.70;1.45;;;17.70;58.30;;;16.48;58.98;100696.38;12186536;19;20312;-88
2022/11/09 15:11:16;;;;;;;2.10;1.65;;;17.70;58.30;;;16.79;58.92;100752.75;12185213;19;20508;-88
2022/11/09 15:15:37;;;;;;;1.50;1.40;;;17.70;58.30;;;16.67;58.94;100747.63;12178827;19;20010;-88
2022/11/09 15:20:00;;;;;;;2.05;1.67;;;17.60;58.30;;;16.71;58.67;100765.69;12178858;19;20371;-88
2022/11/09 15:24:23;;;;;;;2.40;2.15;;;17.60;58.30;;;16.58;58.96;100738.66;12185102;19;20018;-87
2022/11/09 15:28:46;;;;;;;3.22;2.92;;;17.50;58.30;;;16.57;58.96;100740.44;12184650;19;20287;-88
2022/11/09 15:33:33;;;;;;;2.85;2.65;;;17.50;58.30;;;16.55;58.92;100754.69;12189236;19;20305;-89
2022/11/09 15:37:54;;;;;;;2.42;2.22;;;17.50;58.40;;;16.13;58.88;100686.00;12203357;19;20018;-89
2022/11/09 15:42:15;;;;;;;2.90;2.25;;;17.50;58.40;;;16.53;58.83;100759.28;12174070;19;20011;-88
2022/11/09 15:46:52;;;;;;;3.10;2.08;;;17.40;58.40;;;16.25;58.76;100742.16;12170607;19;20015;-88
2022/11/09 15:51:15;;;;;;;1.88;1.77;;;17.40;58.40;;;16.25;58.87;100747.44;12173993;19;20014;-88
2022/11/09 15:55:35;;;;;;;2.65;1.98;;;17.30;58.30;;;16.27;58.76;100756.06;12177579;19;20019;-89
2022/11/09 15:59:56;;;;;;;2.72;1.83;;;17.20;58.40;;;16.08;58.88;100732.94;12178584;19;20880;-89
2022/11/09 16:04:16;;;;;;;3.00;2.30;;;17.20;58.50;;;16.22;58.89;100772.22;12175803;19;20010;-87
2022/11/09 16:08:37;;;;;;;2.72;2.45;;;17.10;58.50;;;15.97;59.04;100738.22;12173097;19;20268;-88
2022/11/09 16:12:57;;;;;;;2.75;2.50;;;17.00;58.50;;;16.07;58.74;100750.56;12171419;19;20026;-88
2022/11/09 16:17:17;;;;;;;6.10;4.75;;;17.00;58.50;;;16.11;58.87;100766.97;12172153;19;20458;-88
2022/11/09 16:21:39;;;;;;;5.40;4.40;;;17.00;58.60;;;16.09;58.70;100774.13;12174440;19;20015;-88
2022/11/09 16:26:07;;;;;;;5.93;4.38;;;16.90;58.60;;;15.92;58.90;100755.19;12174921;19;20022;-89
2022/11/09 16:30:27;;;;;;;3.45;3.00;;;16.90;58.70;;;15.51;59.05;100699.59;12169046;19;20070;-89
2022/11/09 16:34:48;;;;;;;3.05;2.85;;;16.80;58.80;;;15.83;58.87;100763.81;12170887;19;20018;-88
2022/11/09 16:39:15;;;;;;;3.45;3.13;;;16.80;58.80;;;15.87;59.00;100786.31;12168449;19;20570;-89
2022/11/09 16:43:37;;;;;;;2.75;2.53;;;16.70;58.90;;;15.87;59.01;100782.84;12163544;19;20384;-87
2022/11/09 16:47:57;;;;;;;3.92;3.03;;;16.70;58.90;;;15.79;59.11;100783.44;12158695;19;20849;-87
2022/11/09 16:52:17;;;;;;;3.17;2.28;;;16.70;59.00;;;15.81;59.14;100780.69;12168153;19;20011;-87
2022/11/09 16:56:38;;;;;;;2.88;2.65;;;16.60;59.00;;;15.79;59.08;100782.59;12169759;19;20010;-88
2022/11/09 17:00:58;;;;;;;2.97;2.40;;;16.70;58.90;;;15.79;59.10;100785.22;12165561;19;20015;-87
2022/11/09 17:05:18;;;;;;;2.40;2.20;;;16.60;58.90;;;15.67;58.93;100779.09;12166277;19;20456;-88
2022/11/09 17:09:38;;;;;;;2.78;2.20;;;16.60;58.90;;;15.65;58.87;100788.88;12162543;19;20054;-87
2022/11/09 17:13:59;;;;;;;3.40;2.40;;;16.50;59.00;;;15.47;58.86;100756.88;12167247;19;20010;-87
2022/11/09 17:18:20;;;;;;;3.90;3.45;;;16.50;59.00;;;15.58;58.96;100790.28;12161565;19;20018;-88
2022/11/09 17:22:40;;;;;;;4.75;4.10;;;16.50;59.00;;;15.46;59.29;100786.78;12167465;19;20090;-87